Nur fliegen ist schöner ....

Willkommen beim Flugservice Bautzen GmbH

Wir sind eine nach europäischen Richtlinien zugelassene Flugschule und lizenziertes Luftfahrtunternehmen. Bei uns können sie nicht nur Rundflüge über die Oberlausitz oder Sachsen buchen, sondern in unserer Flugschule selber das Fliegen erlernen. Erfahrene Fluglehrer stehen Ihnen dabei zur Seite.

Wir bieten Ihnen außerdem spezielle Flüge zur Vermessung oder Fotoflüge für Luftbildaufnahmen an. In Zusammenarbeit mit dem Fallschirmsportclub Dresden und dem Cottbuser Fallschirmsportclub setzen wir am Flugplatz Bautzen und Neuhausen Fallschirmspringer ab.
Schauen Sie sich in Ruhe bei uns um und wenn Sie Fragen haben oder weitere Informationen benötigen, scheuen Sie sich nicht Kontakt mit uns aufzunehmen.

Gutscheine für Rundflüge und Tandemsprünge können Sie ganz leicht auch online in unserem Shop erwerben.

Terminkalender

Letzter Monat Mai 2020 Nächster Monat
Mo Di Mi Do Fr Sa So
week 18 1 2 3
week 19 4 5 6 7 8 9 10
week 20 11 12 13 14 15 16 17
week 21 18 19 20 21 22 23 24
week 22 25 26 27 28 29 30 31

Flugwetterinfo

[Quelle: ADDS]
METAR
EDDC 281150Z 03008KT 350V060 9999 FEW040 15/07 Q1028 NOSIG =
EDDC 281100Z 2812/2912 34009KT 9999 SCT040 BECMG 2816/2818 35004KT TEMPO 2902/2906 BKN006 BECMG 2906/2908 03009KT
TAF
EDDC 281100Z 2812/2912 34009KT 9999 SCT040 BECMG 2816/2818 35004KT TEMPO 2902/2906 BKN006 BECMG 2906/2908 03009KT =
SR / SS: 02:54 / 19:03 UTC (EDAB Flugplatz Bautzen 2020-05-28)

Öffnungszeiten

des Flugplatzes Bautzen erfahren Sie hier:

flugplatz bautzen logo
Flugservice Bautzen GmbH, Kornmarkt 34, 02625 Bautzen  Telefon: +49 (3591) 211105, Telefax: +49 (3591) 274512, E-Mail:  flugservice(at)fsbautzen.de